Meteo Giornale » Osservazioni meteo Canada » Saint Hubert
ore: 23:00 - Osservazioni Meteo Saint Hubert
Lat. 45° 31' N Lon. 73° 25' W Alt. 27 metri s.l.m.
16 °C
Sereno
Temp. 24 Ore
9 °C
24 °C
Nord
0 Km/h
Dew point 14 °C
Umidità 87 %
Visibilità 14 Km
Il sole sorge alle ore 06:14
Il sole tramonta alle ore 19:33
| Data e Ora | Cielo e Fenomeni | T °C | DP °C | Um. % | Pres. hPa | Vis. km | Vento km/h | |
|---|---|---|---|---|---|---|---|---|
| Oggi h: 23:00 | Sereno | 16 | 14 | 87 | 1017 | 14 | N 0 | |
| Oggi h: 22:00 | Sereno | 18 | 14 | 77 | 1017 | 14 | N 5.5 | |
| Oggi h: 21:00 | Sereno | 18 | 14 | 77 | 1017 | 14 | SE 9.3 | |
| Oggi h: 20:00 | Sereno | 19 | 14 | 72 | 1017 | 14 | S/SE 7.4 | |
| Oggi h: 19:00 | Sereno | 20 | 14 | 68 | 1017 | 14 | E/SE 11.1 | |
| Oggi h: 18:00 | Sereno | 22 | 15 | 64 | 1017 | 14 | E/SE 11.1 | |
| Oggi h: 17:00 | Sereno | 24 | 14 | 53 | 1017 | 14 | N 0 | |
| Oggi h: 16:00 | Poco Nuvoloso | 24 | 14 | 53 | 1018 | 14 | N 7.4 | |
| Oggi h: 15:19 | Foschia | 23 | 13 | 53 | 1018 | 10 | N 11.1 | |
| Oggi h: 15:14 | Foschia | 24 | 13 | 50 | 1018 | 8 | N 0 | |
| Oggi h: 15:00 | Nuvoloso | 24 | 14 | 53 | 1018 | 13 | N 9.3 | |
| Oggi h: 14:00 | Sereno | 22 | 14 | 60 | 1019 | 14 | N 7.4 | |
| Oggi h: 13:12 | Poco Nuvoloso | 22 | 13 | 56 | 1019 | 11 | N 5.5 | |
| Oggi h: 13:02 | Foschia | 22 | 15 | 64 | 1019 | 6 | N 3.7 | |
| Oggi h: 13:00 | Foschia | 22 | 15 | 64 | 1019 | 10 | N 7.4 | |
| Oggi h: 12:00 | Poco Nuvoloso | 21 | 14 | 64 | 1020 | 14 | N 5.5 | |
| Oggi h: 11:00 | Sereno | 20 | 16 | 77 | 1020 | 14 | E 9.3 | |
| Oggi h: 10:00 | Sereno | 18 | 16 | 88 | 1020 | 14 | E 7.4 | |
| Oggi h: 09:00 | Nuvoloso | 15 | 15 | 100 | 1021 | 11 | N 3.7 | |
| Oggi h: 08:47 | Foschia | 14 | 14 | 100 | 1021 | 10 | N 5.5 | |
| Oggi h: 08:30 | Foschia | 13 | 13 | 100 | 1021 | 5 | N 3.7 | |
| Oggi h: 08:29 | Foschia | 13 | 13 | 100 | 1021 | 2 | N 3.7 | |
| Oggi h: 08:15 | Nebbia | 13 | 13 | 100 | 1021 | 2 | N 0 | |
| Oggi h: 08:00 | Nebbia | 12 | 12 | 100 | 1021 | 2 | N 0 | |
| Oggi h: 07:21 | Nebbia | 12 | 12 | 100 | 1020 | 5 | N 5.5 | |
| Oggi h: 07:18 | Foschia | 12 | 12 | 100 | 1020 | 2 | N 5.5 | |
| Oggi h: 07:15 | Foschia | 11 | 11 | 100 | 1020 | 2 | SE 7.4 | |
| Oggi h: 07:10 | Foschia | 11 | 11 | 100 | 1020 | 8 | SE 7.4 | |
| Oggi h: 07:00 | Sereno | 11 | 11 | 100 | 1020 | 14 | N 3.7 | |
| Oggi h: 06:38 | Poco Nuvoloso | 10 | 10 | 100 | 1020 | 14 | N 3.7 | |
| Oggi h: 06:35 | Foschia | 10 | 10 | 100 | 1020 | 6 | N 3.7 | |
| Oggi h: 06:33 | Foschia | 10 | 10 | 100 | 1020 | 2 | N 3.7 | |
| Oggi h: 06:30 | Nebbia | 10 | 10 | 100 | 1020 | 2 | N 5.5 | |
| Oggi h: 06:21 | Nebbia | 10 | 10 | 100 | 1020 | 5 | N 3.7 | |
| Oggi h: 06:19 | Foschia | 10 | 10 | 100 | 1020 | 2 | N 3.7 | |
| Oggi h: 06:18 | Nuvoloso | 10 | 10 | 100 | 1020 | 14 | N 3.7 | |
| Oggi h: 06:16 | Foschia | 10 | 10 | 100 | 1020 | 6 | N 5.5 | |
| Oggi h: 06:12 | Foschia | 9 | 9 | 100 | 1020 | 2 | N 3.7 | |
| Oggi h: 06:10 | Foschia | 9 | 9 | 100 | 1020 | 2 | N 3.7 | |
| Oggi h: 06:00 | Nebbia | 9 | 9 | 100 | 1020 | 2 | N 3.7 | |
| Oggi h: 05:51 | Nebbia | 9 | 9 | 100 | 1020 | 5 | N 5.5 | |
| Oggi h: 05:38 | Foschia | 10 | 10 | 100 | 1019 | 2 | NE 7.4 | |
| Oggi h: 05:36 | Foschia | 11 | 11 | 100 | 1019 | 2 | NE 7.4 | |
| Oggi h: 05:32 | Foschia | 10 | 10 | 100 | 1019 | 8 | N 5.5 | |
| Oggi h: 05:00 | Sereno | 11 | 11 | 100 | 1019 | 14 | N 5.5 | |
| Oggi h: 04:00 | Sereno | 10 | 10 | 100 | 1019 | 14 | N 3.7 | |
| Oggi h: 03:00 | Sereno | 11 | 11 | 100 | 1019 | 14 | NE 9.3 | |
| Oggi h: 02:00 | Sereno | 11 | 11 | 100 | 1019 | 14 | N 3.7 | |
| Oggi h: 01:00 | Sereno | 13 | 13 | 100 | 1019 | 14 | N 0 | |
| Oggi h: 00:00 | Sereno | 13 | 13 | 100 | 1019 | 14 | N 3.7 | |



